RYR461 GMMN-LPPT
Flight info
| Callsign | RYR461 |
|---|---|
| Flight time | 1h 2m |
| Altitude | 38000 |
| Route | LAKAM3D LAKAM UR722 AMSEL DCT VATZI VATZI1A |
| Aircraft | B738/M-SDE2E3FGHIRWXY/LB1 |
Departure
| Time | 2026-04-27 18:57 |
|---|---|
| Airport | Mohammed V International Airport (GMMN) |
Arrival
| Time | 2026-04-27 19:59 |
|---|---|
| Airport | Lisbon Humberto Delgado Airport (LPPT) |
| Time | Latitude | Longitude | Altitude | Speed | Heading |
|---|---|---|---|---|---|
| 2026-04-27 18:32 | 33.37121 | -7.58199 | 664 ft | 0 kts | 73° |
| 2026-04-27 18:44 | 33.37119 | -7.58209 | 664 ft | 2 kts | 75° |
| 2026-04-27 18:44 | 33.37115 | -7.58228 | 664 ft | 2 kts | 82° |
| 2026-04-27 18:44 | 33.37114 | -7.58247 | 664 ft | 2 kts | 94° |
| 2026-04-27 18:45 | 33.37117 | -7.58265 | 664 ft | 2 kts | 115° |
| 2026-04-27 18:45 | 33.37124 | -7.58279 | 664 ft | 2 kts | 151° |
| 2026-04-27 18:45 | 33.37138 | -7.58285 | 664 ft | 2 kts | 164° |
| 2026-04-27 18:45 | 33.37143 | -7.58287 | 664 ft | 0 kts | 164° |
| 2026-04-27 18:48 | 33.37095 | -7.58270 | 664 ft | 15 kts | 164° |
| 2026-04-27 18:48 | 33.36992 | -7.58236 | 664 ft | 11 kts | 164° |
| 2026-04-27 18:48 | 33.36936 | -7.58282 | 664 ft | 12 kts | 254° |
| 2026-04-27 18:48 | 33.36908 | -7.58399 | 664 ft | 15 kts | 254° |
| 2026-04-27 18:49 | 33.36848 | -7.58464 | 664 ft | 14 kts | 169° |
| 2026-04-27 18:49 | 33.36741 | -7.58428 | 664 ft | 18 kts | 164° |
| 2026-04-27 18:49 | 33.36626 | -7.58389 | 664 ft | 18 kts | 164° |
| 2026-04-27 18:49 | 33.36512 | -7.58350 | 664 ft | 17 kts | 164° |
| 2026-04-27 18:50 | 33.36414 | -7.58317 | 664 ft | 14 kts | 164° |
| 2026-04-27 18:50 | 33.36298 | -7.58277 | 664 ft | 20 kts | 164° |
| 2026-04-27 18:50 | 33.36171 | -7.58234 | 664 ft | 20 kts | 164° |
| 2026-04-27 18:50 | 33.36028 | -7.58186 | 664 ft | 21 kts | 164° |
| 2026-04-27 18:51 | 33.35890 | -7.58139 | 664 ft | 23 kts | 164° |
| 2026-04-27 18:51 | 33.35732 | -7.58084 | 664 ft | 23 kts | 164° |
| 2026-04-27 18:51 | 33.35567 | -7.58028 | 664 ft | 24 kts | 164° |
| 2026-04-27 18:51 | 33.35436 | -7.57983 | 664 ft | 11 kts | 164° |
| 2026-04-27 18:52 | 33.35407 | -7.57973 | 664 ft | 2 kts | 164° |
| 2026-04-27 18:52 | 33.35393 | -7.57968 | 664 ft | 6 kts | 164° |
| 2026-04-27 18:52 | 33.35337 | -7.57949 | 664 ft | 9 kts | 165° |
| 2026-04-27 18:53 | 33.35237 | -7.58060 | 664 ft | 0 kts | 255° |
| 2026-04-27 18:54 | 33.35235 | -7.58070 | 664 ft | 7 kts | 255° |
| 2026-04-27 18:54 | 33.35213 | -7.58166 | 664 ft | 13 kts | 254° |
| 2026-04-27 18:54 | 33.35218 | -7.58259 | 664 ft | 11 kts | 329° |
| 2026-04-27 18:54 | 33.35243 | -7.58271 | 664 ft | 0 kts | 343° |
| 2026-04-27 18:55 | 33.35244 | -7.58271 | 664 ft | 0 kts | 343° |
| 2026-04-27 18:56 | 33.35245 | -7.58271 | 664 ft | 1 kts | 343° |
| 2026-04-27 18:56 | 33.35382 | -7.58320 | 664 ft | 55 kts | 343° |
| 2026-04-27 18:56 | 33.36012 | -7.58534 | 665 ft | 131 kts | 344° |
| 2026-04-27 18:56 | 33.37047 | -7.58888 | 947 ft | 171 kts | 344° |
| 2026-04-27 18:57 | 33.38220 | -7.59284 | 1886 ft | 172 kts | 344° |
| 2026-04-27 18:57 | 33.39308 | -7.59808 | 2885 ft | 171 kts | 329° |
| 2026-04-27 18:57 | 33.40219 | -7.60820 | 3404 ft | 191 kts | 309° |
| 2026-04-27 18:57 | 33.41064 | -7.62161 | 3774 ft | 217 kts | 308° |
| 2026-04-27 18:58 | 33.42044 | -7.63683 | 4125 ft | 242 kts | 308° |
| 2026-04-27 18:58 | 33.42740 | -7.64769 | 4702 ft | 242 kts | 308° |
| 2026-04-27 18:58 | 33.44050 | -7.66824 | 6295 ft | 231 kts | 306° |
| 2026-04-27 18:58 | 33.45029 | -7.68366 | 7177 ft | 235 kts | 304° |
| 2026-04-27 18:59 | 33.46029 | -7.69945 | 8035 ft | 239 kts | 304° |
| 2026-04-27 18:59 | 33.47042 | -7.71548 | 8897 ft | 243 kts | 304° |
| 2026-04-27 18:59 | 33.48066 | -7.73170 | 9745 ft | 246 kts | 304° |
| 2026-04-27 18:59 | 33.49102 | -7.74814 | 10578 ft | 249 kts | 304° |
| 2026-04-27 19:00 | 33.50153 | -7.76481 | 11396 ft | 252 kts | 304° |
| 2026-04-27 19:00 | 33.51218 | -7.78172 | 12201 ft | 255 kts | 304° |
| 2026-04-27 19:00 | 33.52292 | -7.79879 | 12989 ft | 258 kts | 304° |
| 2026-04-27 19:00 | 33.53383 | -7.81611 | 13740 ft | 263 kts | 304° |
| 2026-04-27 19:01 | 33.54509 | -7.83400 | 14313 ft | 275 kts | 304° |
| 2026-04-27 19:01 | 33.55698 | -7.85291 | 14646 ft | 295 kts | 304° |
| 2026-04-27 19:01 | 33.56998 | -7.87310 | 14923 ft | 316 kts | 308° |
| 2026-04-27 19:01 | 33.58744 | -7.89063 | 15007 ft | 340 kts | 326° |
| 2026-04-27 19:02 | 33.60972 | -7.90060 | 15008 ft | 354 kts | 345° |
| 2026-04-27 19:02 | 33.63464 | -7.90134 | 15003 ft | 363 kts | 4° |
| 2026-04-27 19:02 | 33.65896 | -7.89260 | 15009 ft | 368 kts | 20° |
| 2026-04-27 19:02 | 33.68232 | -7.87983 | 15005 ft | 368 kts | 20° |
| 2026-04-27 19:03 | 33.70617 | -7.86890 | 15000 ft | 367 kts | 15° |
| 2026-04-27 19:03 | 33.73054 | -7.85987 | 14997 ft | 365 kts | 12° |
| 2026-04-27 19:03 | 33.75517 | -7.85233 | 14997 ft | 364 kts | 9° |
| 2026-04-27 19:03 | 33.77155 | -7.84783 | 14997 ft | 364 kts | 9° |
| 2026-04-27 19:04 | 33.80466 | -7.83905 | 14997 ft | 364 kts | 9° |
| 2026-04-27 19:04 | 33.82950 | -7.83374 | 14995 ft | 362 kts | 3° |
| 2026-04-27 19:04 | 33.85456 | -7.83237 | 15072 ft | 362 kts | 355° |
| 2026-04-27 19:04 | 33.87991 | -7.83335 | 15812 ft | 364 kts | 355° |
| 2026-04-27 19:05 | 33.90526 | -7.83384 | 16616 ft | 366 kts | 355° |
| 2026-04-27 19:05 | 33.93092 | -7.83436 | 17312 ft | 370 kts | 355° |
| 2026-04-27 19:05 | 33.95678 | -7.83490 | 17986 ft | 374 kts | 355° |
| 2026-04-27 19:05 | 33.98296 | -7.83547 | 18649 ft | 378 kts | 355° |
| 2026-04-27 19:06 | 34.00935 | -7.83606 | 19293 ft | 381 kts | 355° |
| 2026-04-27 19:06 | 34.03599 | -7.83667 | 19923 ft | 385 kts | 355° |
| 2026-04-27 19:06 | 34.06291 | -7.83729 | 20537 ft | 389 kts | 355° |
| 2026-04-27 19:06 | 34.09010 | -7.83792 | 21134 ft | 392 kts | 355° |
| 2026-04-27 19:07 | 34.11758 | -7.83856 | 21716 ft | 396 kts | 355° |
| 2026-04-27 19:07 | 34.14486 | -7.83920 | 22271 ft | 399 kts | 355° |
| 2026-04-27 19:07 | 34.17284 | -7.83985 | 22821 ft | 403 kts | 355° |
| 2026-04-27 19:07 | 34.20096 | -7.84051 | 23352 ft | 406 kts | 355° |
| 2026-04-27 19:08 | 34.22933 | -7.84118 | 23871 ft | 409 kts | 355° |
| 2026-04-27 19:08 | 34.25797 | -7.84185 | 24373 ft | 412 kts | 355° |
| 2026-04-27 19:08 | 34.28678 | -7.84252 | 24860 ft | 416 kts | 355° |
| 2026-04-27 19:08 | 34.31578 | -7.84321 | 25333 ft | 419 kts | 355° |
| 2026-04-27 19:09 | 34.34507 | -7.84390 | 25793 ft | 422 kts | 355° |
| 2026-04-27 19:09 | 34.37461 | -7.84459 | 26248 ft | 424 kts | 355° |
| 2026-04-27 19:09 | 34.40407 | -7.84529 | 26816 ft | 423 kts | 355° |
| 2026-04-27 19:09 | 34.43372 | -7.84599 | 27081 ft | 431 kts | 355° |
| 2026-04-27 19:10 | 34.46380 | -7.84671 | 27162 ft | 442 kts | 355° |
| 2026-04-27 19:10 | 34.49491 | -7.84744 | 27235 ft | 452 kts | 355° |
| 2026-04-27 19:10 | 34.52676 | -7.84820 | 27385 ft | 460 kts | 355° |
| 2026-04-27 19:10 | 34.54790 | -7.84870 | 27656 ft | 460 kts | 355° |
| 2026-04-27 19:11 | 34.59054 | -7.84971 | 28437 ft | 455 kts | 355° |
| 2026-04-27 19:11 | 34.62222 | -7.85047 | 28924 ft | 454 kts | 355° |
| 2026-04-27 19:11 | 34.65382 | -7.85122 | 29356 ft | 454 kts | 355° |
| 2026-04-27 19:11 | 34.68530 | -7.85197 | 29820 ft | 453 kts | 355° |
| 2026-04-27 19:12 | 34.71680 | -7.85272 | 30264 ft | 452 kts | 355° |
| 2026-04-27 19:12 | 34.74823 | -7.85347 | 30699 ft | 451 kts | 355° |
| 2026-04-27 19:12 | 34.77956 | -7.85422 | 31125 ft | 450 kts | 355° |
| 2026-04-27 19:12 | 34.81090 | -7.85497 | 31544 ft | 449 kts | 355° |
| 2026-04-27 19:13 | 34.84211 | -7.85571 | 31953 ft | 449 kts | 355° |
| 2026-04-27 19:13 | 34.87334 | -7.85646 | 32356 ft | 448 kts | 355° |
| 2026-04-27 19:13 | 34.90402 | -7.85719 | 32746 ft | 447 kts | 355° |
| 2026-04-27 19:13 | 34.93513 | -7.85794 | 33132 ft | 446 kts | 355° |
| 2026-04-27 19:14 | 34.96654 | -7.85869 | 33516 ft | 446 kts | 355° |
| 2026-04-27 19:14 | 34.99712 | -7.85943 | 33882 ft | 445 kts | 355° |
| 2026-04-27 19:14 | 35.02805 | -7.86017 | 34246 ft | 444 kts | 355° |
| 2026-04-27 19:14 | 35.05891 | -7.86091 | 34601 ft | 443 kts | 355° |
| 2026-04-27 19:15 | 35.08985 | -7.86166 | 34951 ft | 443 kts | 355° |
| 2026-04-27 19:15 | 35.12063 | -7.86240 | 35292 ft | 442 kts | 355° |
| 2026-04-27 19:15 | 35.15139 | -7.86314 | 35625 ft | 441 kts | 355° |
| 2026-04-27 19:15 | 35.18217 | -7.86388 | 35951 ft | 441 kts | 355° |
| 2026-04-27 19:16 | 35.21283 | -7.86462 | 36255 ft | 441 kts | 355° |
| 2026-04-27 19:16 | 35.27380 | -7.86609 | 36820 ft | 440 kts | 355° |
| 2026-04-27 19:16 | 35.30447 | -7.86684 | 37097 ft | 440 kts | 355° |
| 2026-04-27 19:17 | 35.33520 | -7.86758 | 37364 ft | 440 kts | 355° |
| 2026-04-27 19:17 | 35.36582 | -7.86832 | 37625 ft | 440 kts | 355° |
| 2026-04-27 19:17 | 35.39653 | -7.86907 | 37879 ft | 440 kts | 355° |
| 2026-04-27 19:17 | 35.42726 | -7.86981 | 37990 ft | 443 kts | 355° |
| 2026-04-27 19:18 | 35.45816 | -7.87056 | 37996 ft | 445 kts | 355° |
| 2026-04-27 19:18 | 35.51957 | -7.87205 | 37997 ft | 442 kts | 355° |
| 2026-04-27 19:19 | 35.57094 | -7.87330 | 37997 ft | 440 kts | 355° |
| 2026-04-27 19:19 | 35.63220 | -7.87480 | 37997 ft | 441 kts | 355° |
| 2026-04-27 19:20 | 35.70353 | -7.87653 | 37997 ft | 441 kts | 355° |
| 2026-04-27 19:20 | 35.75488 | -7.87779 | 37997 ft | 441 kts | 355° |
| 2026-04-27 19:21 | 35.81624 | -7.87929 | 37997 ft | 441 kts | 355° |
| 2026-04-27 19:21 | 35.87708 | -7.88079 | 37997 ft | 441 kts | 355° |
| 2026-04-27 19:22 | 35.93831 | -7.88354 | 37995 ft | 438 kts | 350° |
| 2026-04-27 19:22 | 35.99683 | -7.90215 | 37998 ft | 432 kts | 335° |
| 2026-04-27 19:23 | 36.05160 | -7.93240 | 37997 ft | 430 kts | 331° |
| 2026-04-27 19:23 | 36.10562 | -7.96446 | 37997 ft | 430 kts | 331° |
| 2026-04-27 19:24 | 36.15973 | -7.99654 | 37997 ft | 430 kts | 331° |
| 2026-04-27 19:24 | 36.21370 | -8.02854 | 37997 ft | 430 kts | 331° |
| 2026-04-27 19:25 | 36.26746 | -8.06044 | 37997 ft | 430 kts | 331° |
| 2026-04-27 19:25 | 36.32196 | -8.09251 | 37997 ft | 430 kts | 332° |
| 2026-04-27 19:26 | 36.37565 | -8.12424 | 37997 ft | 430 kts | 332° |
| 2026-04-27 19:26 | 36.42974 | -8.15632 | 37997 ft | 430 kts | 331° |
| 2026-04-27 19:27 | 36.48380 | -8.18847 | 37997 ft | 430 kts | 331° |
| 2026-04-27 19:27 | 36.53787 | -8.22068 | 37997 ft | 430 kts | 331° |
| 2026-04-27 19:28 | 36.59189 | -8.25293 | 37997 ft | 430 kts | 331° |
| 2026-04-27 19:28 | 36.64588 | -8.28521 | 37997 ft | 430 kts | 331° |
| 2026-04-27 19:29 | 36.69924 | -8.31716 | 37588 ft | 418 kts | 331° |
| 2026-04-27 19:29 | 36.72510 | -8.33266 | 37016 ft | 419 kts | 331° |
| 2026-04-27 19:29 | 36.75155 | -8.34853 | 36257 ft | 424 kts | 331° |
| 2026-04-27 19:29 | 36.77828 | -8.36458 | 35515 ft | 427 kts | 331° |
| 2026-04-27 19:30 | 36.80523 | -8.38078 | 34764 ft | 431 kts | 331° |
| 2026-04-27 19:30 | 36.83231 | -8.39706 | 34020 ft | 434 kts | 331° |
| 2026-04-27 19:30 | 36.85959 | -8.41348 | 33310 ft | 435 kts | 331° |
| 2026-04-27 19:30 | 36.88691 | -8.42993 | 32588 ft | 436 kts | 331° |
| 2026-04-27 19:31 | 36.91430 | -8.44645 | 31839 ft | 438 kts | 331° |
| 2026-04-27 19:31 | 36.94186 | -8.46308 | 31073 ft | 439 kts | 331° |
| 2026-04-27 19:31 | 36.96942 | -8.47972 | 30288 ft | 441 kts | 331° |
| 2026-04-27 19:31 | 36.99707 | -8.49642 | 29485 ft | 442 kts | 331° |
| 2026-04-27 19:32 | 37.02490 | -8.51325 | 28678 ft | 444 kts | 331° |
| 2026-04-27 19:32 | 37.05277 | -8.53013 | 27847 ft | 445 kts | 331° |
| 2026-04-27 19:32 | 37.08071 | -8.54705 | 26977 ft | 447 kts | 331° |
| 2026-04-27 19:32 | 37.10876 | -8.56406 | 26085 ft | 449 kts | 331° |
| 2026-04-27 19:33 | 37.13637 | -8.58081 | 25553 ft | 441 kts | 331° |
| 2026-04-27 19:33 | 37.15491 | -8.59207 | 25419 ft | 436 kts | 331° |
| 2026-04-27 19:33 | 37.19113 | -8.61408 | 25248 ft | 439 kts | 331° |
| 2026-04-27 19:33 | 37.21875 | -8.63088 | 25154 ft | 441 kts | 331° |
| 2026-04-27 19:34 | 37.24648 | -8.64776 | 25091 ft | 444 kts | 331° |
| 2026-04-27 19:34 | 37.27434 | -8.66455 | 25026 ft | 444 kts | 333° |
| 2026-04-27 19:34 | 37.30324 | -8.67889 | 25006 ft | 446 kts | 338° |
| 2026-04-27 19:34 | 37.33317 | -8.68916 | 25001 ft | 449 kts | 345° |
| 2026-04-27 19:35 | 37.36390 | -8.69644 | 24999 ft | 449 kts | 347° |
| 2026-04-27 19:35 | 37.39475 | -8.70297 | 24997 ft | 450 kts | 348° |
| 2026-04-27 19:35 | 37.42565 | -8.70928 | 24886 ft | 448 kts | 347° |
| 2026-04-27 19:35 | 37.45618 | -8.71554 | 24258 ft | 441 kts | 347° |
| 2026-04-27 19:36 | 37.48642 | -8.72175 | 23502 ft | 440 kts | 347° |
| 2026-04-27 19:36 | 37.51640 | -8.72792 | 22872 ft | 435 kts | 347° |
| 2026-04-27 19:36 | 37.54613 | -8.73405 | 22241 ft | 431 kts | 347° |
| 2026-04-27 19:36 | 37.57562 | -8.74013 | 21604 ft | 427 kts | 347° |
| 2026-04-27 19:37 | 37.60478 | -8.74616 | 20973 ft | 423 kts | 347° |
| 2026-04-27 19:37 | 37.63370 | -8.75214 | 20346 ft | 419 kts | 347° |
| 2026-04-27 19:37 | 37.66230 | -8.75806 | 19723 ft | 415 kts | 347° |
| 2026-04-27 19:37 | 37.69030 | -8.76384 | 19111 ft | 411 kts | 347° |
| 2026-04-27 19:38 | 37.71879 | -8.76969 | 18486 ft | 407 kts | 347° |
| 2026-04-27 19:38 | 37.74627 | -8.77534 | 17881 ft | 404 kts | 347° |
| 2026-04-27 19:38 | 37.77396 | -8.78106 | 17271 ft | 400 kts | 347° |
| 2026-04-27 19:38 | 37.80132 | -8.78672 | 16666 ft | 396 kts | 347° |
| 2026-04-27 19:39 | 37.82846 | -8.79235 | 16064 ft | 393 kts | 347° |
| 2026-04-27 19:39 | 37.85536 | -8.79793 | 15466 ft | 390 kts | 347° |
| 2026-04-27 19:39 | 37.88203 | -8.80346 | 14873 ft | 386 kts | 347° |
| 2026-04-27 19:39 | 37.90818 | -8.80890 | 14293 ft | 383 kts | 347° |
| 2026-04-27 19:40 | 37.93437 | -8.81435 | 13712 ft | 380 kts | 347° |
| 2026-04-27 19:40 | 37.96041 | -8.81977 | 13136 ft | 377 kts | 347° |
| 2026-04-27 19:40 | 37.98619 | -8.82514 | 12565 ft | 374 kts | 347° |
| 2026-04-27 19:40 | 38.01171 | -8.83043 | 12000 ft | 371 kts | 347° |
| 2026-04-27 19:41 | 38.03709 | -8.83569 | 11442 ft | 368 kts | 347° |
| 2026-04-27 19:41 | 38.06213 | -8.84091 | 11192 ft | 361 kts | 347° |
| 2026-04-27 19:41 | 38.08686 | -8.84607 | 11119 ft | 361 kts | 347° |
| 2026-04-27 19:41 | 38.11177 | -8.85129 | 11055 ft | 363 kts | 347° |
| 2026-04-27 19:42 | 38.13681 | -8.85653 | 11007 ft | 366 kts | 347° |
| 2026-04-27 19:42 | 38.16169 | -8.86175 | 11001 ft | 366 kts | 347° |
| 2026-04-27 19:42 | 38.18690 | -8.86704 | 10998 ft | 366 kts | 347° |
| 2026-04-27 19:42 | 38.21162 | -8.87223 | 10860 ft | 363 kts | 347° |
| 2026-04-27 19:43 | 38.23650 | -8.87746 | 10383 ft | 361 kts | 347° |
| 2026-04-27 19:43 | 38.26123 | -8.88266 | 9902 ft | 358 kts | 347° |
| 2026-04-27 19:43 | 38.28525 | -8.88771 | 9266 ft | 340 kts | 347° |
| 2026-04-27 19:43 | 38.30811 | -8.89251 | 8562 ft | 326 kts | 347° |
| 2026-04-27 19:44 | 38.32977 | -8.89727 | 8116 ft | 305 kts | 344° |
| 2026-04-27 19:44 | 38.34921 | -8.90516 | 7768 ft | 281 kts | 330° |
| 2026-04-27 19:44 | 38.36364 | -8.92001 | 7453 ft | 257 kts | 307° |
| 2026-04-27 19:44 | 38.37349 | -8.93832 | 7151 ft | 245 kts | 300° |
| 2026-04-27 19:45 | 38.38267 | -8.95667 | 7085 ft | 246 kts | 301° |
| 2026-04-27 19:45 | 38.39234 | -8.97469 | 7022 ft | 247 kts | 302° |
| 2026-04-27 19:45 | 38.39982 | -8.99427 | 6971 ft | 246 kts | 282° |
| 2026-04-27 19:45 | 38.39968 | -9.01588 | 6982 ft | 246 kts | 257° |
| 2026-04-27 19:46 | 38.39184 | -9.03489 | 6991 ft | 250 kts | 232° |
| 2026-04-27 19:46 | 38.37903 | -9.05006 | 7019 ft | 252 kts | 226° |
| 2026-04-27 19:46 | 38.36714 | -9.06631 | 7010 ft | 250 kts | 234° |
| 2026-04-27 19:46 | 38.35696 | -9.08418 | 7005 ft | 249 kts | 238° |
| 2026-04-27 19:47 | 38.34855 | -9.10339 | 6998 ft | 247 kts | 249° |
| 2026-04-27 19:47 | 38.34339 | -9.12413 | 7002 ft | 246 kts | 257° |
| 2026-04-27 19:47 | 38.34002 | -9.14554 | 7000 ft | 246 kts | 261° |
| 2026-04-27 19:47 | 38.33706 | -9.16698 | 7000 ft | 246 kts | 260° |
| 2026-04-27 19:48 | 38.33388 | -9.18838 | 7000 ft | 246 kts | 260° |
| 2026-04-27 19:48 | 38.33064 | -9.20978 | 7000 ft | 246 kts | 260° |
| 2026-04-27 19:48 | 38.32826 | -9.23126 | 6996 ft | 245 kts | 268° |
| 2026-04-27 19:48 | 38.32911 | -9.25298 | 7000 ft | 246 kts | 276° |
| 2026-04-27 19:49 | 38.33210 | -9.27443 | 7001 ft | 246 kts | 281° |
| 2026-04-27 19:49 | 38.33580 | -9.29570 | 7000 ft | 246 kts | 281° |
| 2026-04-27 19:49 | 38.33934 | -9.31696 | 7000 ft | 246 kts | 281° |
| 2026-04-27 19:49 | 38.34581 | -9.33679 | 6960 ft | 249 kts | 305° |
| 2026-04-27 19:50 | 38.36004 | -9.34924 | 6966 ft | 253 kts | 338° |
| 2026-04-27 19:50 | 38.37729 | -9.35026 | 6992 ft | 246 kts | 3° |
| 2026-04-27 19:50 | 38.39353 | -9.34482 | 6982 ft | 239 kts | 17° |
| 2026-04-27 19:50 | 38.40863 | -9.33675 | 6987 ft | 232 kts | 18° |
| 2026-04-27 19:51 | 38.42337 | -9.32879 | 6974 ft | 227 kts | 18° |
| 2026-04-27 19:51 | 38.43744 | -9.32117 | 6812 ft | 214 kts | 18° |
| 2026-04-27 19:51 | 38.45099 | -9.31382 | 6470 ft | 209 kts | 18° |
| 2026-04-27 19:51 | 38.46419 | -9.30665 | 6149 ft | 204 kts | 18° |
| 2026-04-27 19:52 | 38.47713 | -9.29962 | 5798 ft | 200 kts | 19° |
| 2026-04-27 19:52 | 38.48558 | -9.29502 | 5557 ft | 198 kts | 19° |
| 2026-04-27 19:52 | 38.50221 | -9.28597 | 5059 ft | 194 kts | 20° |
| 2026-04-27 19:52 | 38.51460 | -9.27922 | 4661 ft | 193 kts | 21° |
| 2026-04-27 19:53 | 38.53921 | -9.26580 | 4051 ft | 191 kts | 23° |
| 2026-04-27 19:53 | 38.55133 | -9.25897 | 3995 ft | 190 kts | 23° |
| 2026-04-27 19:53 | 38.56345 | -9.25231 | 3998 ft | 190 kts | 22° |
| 2026-04-27 19:54 | 38.57566 | -9.24570 | 4000 ft | 191 kts | 22° |
| 2026-04-27 19:54 | 38.58792 | -9.23911 | 3988 ft | 194 kts | 22° |
| 2026-04-27 19:54 | 38.60051 | -9.23239 | 3837 ft | 196 kts | 22° |
| 2026-04-27 19:54 | 38.61293 | -9.22576 | 3578 ft | 189 kts | 22° |
| 2026-04-27 19:55 | 38.62478 | -9.21945 | 3332 ft | 178 kts | 22° |
| 2026-04-27 19:55 | 38.63567 | -9.21365 | 3131 ft | 165 kts | 22° |
| 2026-04-27 19:55 | 38.64624 | -9.20802 | 2892 ft | 160 kts | 22° |
| 2026-04-27 19:55 | 38.65622 | -9.20270 | 2705 ft | 150 kts | 22° |
| 2026-04-27 19:56 | 38.66557 | -9.19772 | 2518 ft | 146 kts | 22° |
| 2026-04-27 19:56 | 38.67486 | -9.19277 | 2298 ft | 142 kts | 22° |
| 2026-04-27 19:56 | 38.68386 | -9.18797 | 2104 ft | 139 kts | 22° |
| 2026-04-27 19:56 | 38.69273 | -9.18324 | 1922 ft | 137 kts | 22° |
| 2026-04-27 19:57 | 38.70151 | -9.17856 | 1745 ft | 136 kts | 22° |
| 2026-04-27 19:57 | 38.71023 | -9.17390 | 1566 ft | 136 kts | 22° |
| 2026-04-27 19:57 | 38.71895 | -9.16925 | 1387 ft | 136 kts | 22° |
| 2026-04-27 19:57 | 38.72763 | -9.16462 | 1207 ft | 135 kts | 22° |
| 2026-04-27 19:58 | 38.73633 | -9.15997 | 1027 ft | 135 kts | 22° |
| 2026-04-27 19:58 | 38.74495 | -9.15537 | 849 ft | 134 kts | 22° |
| 2026-04-27 19:58 | 38.75361 | -9.15074 | 669 ft | 134 kts | 22° |
| 2026-04-27 19:58 | 38.76222 | -9.14614 | 491 ft | 134 kts | 22° |
| 2026-04-27 19:59 | 38.77069 | -9.14162 | 383 ft | 124 kts | 22° |
| 2026-04-27 19:59 | 38.77700 | -9.13824 | 382 ft | 76 kts | 22° |
| 2026-04-27 19:59 | 38.78004 | -9.13662 | 382 ft | 28 kts | 22° |
| 2026-04-27 19:59 | 38.78181 | -9.13568 | 382 ft | 27 kts | 27° |
| 2026-04-27 20:00 | 38.78315 | -9.13434 | 382 ft | 17 kts | 46° |
| 2026-04-27 20:00 | 38.78374 | -9.13346 | 382 ft | 9 kts | 57° |
| 2026-04-27 20:00 | 38.78379 | -9.13324 | 382 ft | 0 kts | 85° |
| 2026-04-27 20:02 | 38.78379 | -9.13306 | 382 ft | 7 kts | 96° |
| 2026-04-27 20:02 | 38.78350 | -9.13263 | 382 ft | 9 kts | 163° |
| 2026-04-27 20:03 | 38.78276 | -9.13288 | 382 ft | 9 kts | 203° |
| 2026-04-27 20:03 | 38.78233 | -9.13312 | 382 ft | 10 kts | 203° |
| 2026-04-27 20:03 | 38.78176 | -9.13342 | 382 ft | 10 kts | 201° |
| 2026-04-27 20:03 | 38.78131 | -9.13366 | 382 ft | 8 kts | 202° |
| 2026-04-27 20:04 | 38.78088 | -9.13388 | 382 ft | 8 kts | 202° |
| 2026-04-27 20:04 | 38.78022 | -9.13423 | 382 ft | 10 kts | 202° |
| 2026-04-27 20:04 | 38.77927 | -9.13471 | 382 ft | 19 kts | 201° |
| 2026-04-27 20:04 | 38.77836 | -9.13524 | 382 ft | 15 kts | 204° |
| 2026-04-27 20:05 | 38.77755 | -9.13568 | 382 ft | 12 kts | 202° |
| 2026-04-27 20:05 | 38.77675 | -9.13610 | 382 ft | 15 kts | 201° |
| 2026-04-27 20:05 | 38.77590 | -9.13656 | 382 ft | 14 kts | 203° |
| 2026-04-27 20:05 | 38.77494 | -9.13706 | 382 ft | 11 kts | 202° |
| 2026-04-27 20:06 | 38.77445 | -9.13732 | 382 ft | 10 kts | 203° |
| 2026-04-27 20:06 | 38.77369 | -9.13773 | 382 ft | 14 kts | 203° |
| 2026-04-27 20:06 | 38.77320 | -9.13799 | 382 ft | 7 kts | 203° |
| 2026-04-27 20:06 | 38.77292 | -9.13814 | 382 ft | 6 kts | 202° |
| 2026-04-27 20:07 | 38.77236 | -9.13844 | 382 ft | 11 kts | 202° |
| 2026-04-27 20:07 | 38.77155 | -9.13887 | 382 ft | 12 kts | 202° |
| 2026-04-27 20:07 | 38.77086 | -9.13896 | 382 ft | 12 kts | 170° |
| 2026-04-27 20:07 | 38.77016 | -9.13879 | 382 ft | 10 kts | 168° |
| 2026-04-27 20:08 | 38.76950 | -9.13861 | 382 ft | 12 kts | 168° |
| 2026-04-27 20:08 | 38.76870 | -9.13840 | 382 ft | 12 kts | 168° |
| 2026-04-27 20:08 | 38.76840 | -9.13832 | 382 ft | 5 kts | 168° |
| 2026-04-27 20:08 | 38.76789 | -9.13817 | 382 ft | 10 kts | 167° |
| 2026-04-27 20:09 | 38.76728 | -9.13801 | 382 ft | 10 kts | 168° |
| 2026-04-27 20:09 | 38.76659 | -9.13783 | 382 ft | 9 kts | 170° |
| 2026-04-27 20:09 | 38.76617 | -9.13740 | 382 ft | 10 kts | 106° |
| 2026-04-27 20:09 | 38.76614 | -9.13684 | 382 ft | 5 kts | 134° |
| 2026-04-27 20:10 | 38.76584 | -9.13669 | 382 ft | 4 kts | 167° |
| 2026-04-27 20:10 | 38.76559 | -9.13637 | 382 ft | 6 kts | 90° |
| 2026-04-27 20:10 | 38.76548 | -9.13605 | 382 ft | 0 kts | 158° |
| 2026-04-27 20:10 | 38.76533 | -9.13598 | 382 ft | 5 kts | 163° |
| 2026-04-27 20:11 | 38.76499 | -9.13589 | 382 ft | 4 kts | 168° |
| 2026-04-27 20:11 | 38.76488 | -9.13586 | 382 ft | 0 kts | 166° |